createdAt,value
2023-02-19T00:01:59.839Z,3.80
2023-02-19T00:07:02.311Z,3.28
2023-02-19T00:12:06.523Z,4.10
2023-02-19T00:17:09.026Z,3.75
2023-02-19T00:22:11.952Z,3.00
2023-02-19T00:27:15.374Z,3.50
2023-02-19T00:32:17.755Z,3.22
2023-02-19T00:37:21.322Z,3.10
2023-02-19T00:42:26.389Z,3.45
2023-02-19T00:47:30.037Z,3.75
2023-02-19T00:52:32.381Z,4.15
2023-02-19T00:57:35.321Z,4.10
2023-02-19T01:02:38.198Z,5.00
2023-02-19T01:07:40.984Z,5.32
2023-02-19T01:12:43.497Z,6.20
2023-02-19T01:17:46.075Z,6.22
2023-02-19T01:22:48.830Z,6.38
2023-02-19T01:27:51.883Z,7.35
2023-02-19T01:32:54.778Z,7.03
2023-02-19T01:37:57.662Z,6.97
2023-02-19T01:43:00.266Z,7.07
2023-02-19T01:48:18.118Z,5.38
2023-02-19T01:53:26.252Z,5.22
2023-02-19T01:58:33.903Z,5.35
2023-02-19T02:03:39.030Z,5.35
2023-02-19T02:09:00.991Z,4.57
2023-02-19T02:14:05.614Z,5.50
2023-02-19T02:19:44.596Z,5.45
2023-02-19T02:25:21.814Z,5.13
2023-02-19T02:30:34.430Z,4.38
2023-02-19T02:35:57.158Z,4.25
2023-02-19T02:41:00.323Z,4.70
2023-02-19T02:46:03.320Z,5.60
2023-02-19T02:51:27.674Z,5.00
2023-02-19T02:56:45.111Z,5.65
2023-02-19T03:02:13.461Z,4.95
2023-02-19T03:07:16.577Z,5.78
2023-02-19T03:12:40.295Z,5.80
2023-02-19T03:18:11.175Z,5.32
2023-02-19T03:23:17.732Z,5.60
2023-02-19T03:28:47.795Z,5.82
2023-02-19T03:33:59.997Z,5.65
2023-02-19T03:39:08.340Z,5.70
2023-02-19T03:44:36.251Z,5.78
2023-02-19T03:49:57.058Z,5.20
2023-02-19T03:55:20.932Z,6.35
2023-02-19T04:00:51.454Z,6.10
2023-02-19T04:06:01.288Z,5.72
2023-02-19T04:11:05.080Z,5.22
2023-02-19T04:16:18.117Z,5.97
2023-02-19T04:21:23.288Z,5.57
2023-02-19T04:26:25.955Z,6.03
2023-02-19T04:31:32.551Z,5.28
2023-02-19T04:36:35.244Z,5.30
2023-02-19T04:41:37.654Z,5.28
2023-02-19T04:46:43.018Z,5.00
2023-02-19T04:51:45.922Z,5.18
2023-02-19T04:56:48.376Z,5.57
2023-02-19T05:01:50.927Z,5.25
2023-02-19T05:06:53.388Z,5.38
2023-02-19T05:11:55.860Z,4.78
2023-02-19T05:16:58.262Z,5.30
2023-02-19T05:22:01.342Z,6.22
2023-02-19T05:27:03.924Z,6.18
2023-02-19T05:32:06.890Z,6.38
2023-02-19T05:37:10.228Z,6.68
2023-02-19T05:42:16.097Z,7.43
2023-02-19T05:47:19.045Z,6.75
2023-02-19T05:52:21.885Z,6.90
2023-02-19T05:57:24.436Z,7.30
2023-02-19T06:02:27.726Z,6.75
2023-02-19T06:07:32.032Z,6.90
2023-02-19T06:12:34.492Z,9.27
2023-02-19T06:17:37.543Z,8.13
2023-02-19T06:22:40.136Z,7.85
2023-02-19T06:27:42.618Z,8.82
2023-02-19T06:32:45.157Z,8.82
2023-02-19T06:37:49.487Z,8.77
2023-02-19T06:42:52.012Z,8.70
2023-02-19T06:47:55.842Z,7.70
2023-02-19T06:52:58.380Z,8.40
2023-02-19T06:58:00.982Z,8.40
2023-02-19T07:03:05.600Z,8.25
2023-02-19T07:08:08.841Z,8.90
2023-02-19T07:13:12.622Z,9.55
2023-02-19T07:18:15.570Z,9.85
2023-02-19T07:23:18.110Z,10.45
2023-02-19T07:28:21.077Z,11.07
2023-02-19T07:33:23.415Z,9.82
2023-02-19T07:38:27.697Z,10.18
2023-02-19T07:43:36.997Z,9.95
2023-02-19T07:48:41.587Z,10.40
2023-02-19T07:53:44.050Z,9.65
2023-02-19T07:58:46.694Z,9.10
2023-02-19T08:03:50.528Z,9.50
2023-02-19T08:08:53.031Z,9.85
2023-02-19T08:13:55.446Z,8.98
2023-02-19T08:18:58.359Z,9.20
2023-02-19T08:24:00.826Z,9.60
2023-02-19T08:29:05.181Z,8.55
2023-02-19T08:34:07.691Z,9.05
2023-02-19T08:39:10.470Z,8.45
2023-02-19T08:44:12.916Z,8.07
2023-02-19T08:49:16.806Z,8.73
2023-02-19T08:54:19.254Z,7.75
2023-02-19T08:59:21.776Z,7.95
2023-02-19T09:04:24.147Z,7.35
2023-02-19T09:09:26.735Z,7.32
2023-02-19T09:14:32.775Z,6.85
2023-02-19T09:19:36.406Z,6.85
2023-02-19T09:24:39.372Z,7.03
2023-02-19T09:29:42.491Z,7.22
2023-02-19T09:34:45.278Z,7.40
2023-02-19T09:39:47.959Z,6.88
2023-02-19T09:44:53.143Z,6.45
2023-02-19T09:50:07.416Z,5.45
2023-02-19T09:55:35.152Z,5.40
2023-02-19T10:00:38.140Z,4.65
2023-02-19T10:05:41.200Z,5.13
2023-02-19T10:10:44.390Z,5.30
2023-02-19T10:15:59.045Z,4.82
2023-02-19T10:21:02.579Z,4.90
2023-02-19T10:26:05.860Z,4.40
2023-02-19T10:31:21.720Z,4.80
2023-02-19T10:36:31.752Z,4.13
2023-02-19T10:41:42.467Z,3.83
2023-02-19T10:46:50.073Z,3.58
2023-02-19T10:51:55.236Z,3.13
2023-02-19T10:57:16.011Z,3.45
2023-02-19T11:02:20.455Z,3.70
2023-02-19T11:07:23.206Z,3.80
2023-02-19T11:12:35.906Z,3.53
2023-02-19T11:17:39.060Z,3.92
2023-02-19T11:22:47.225Z,4.93
2023-02-19T11:28:07.459Z,4.90
2023-02-19T11:33:25.169Z,4.72
2023-02-19T11:38:27.733Z,4.75
2023-02-19T11:43:42.394Z,4.85
2023-02-19T11:48:56.990Z,5.05
2023-02-19T11:54:19.369Z,5.18
2023-02-19T11:59:34.648Z,5.50
2023-02-19T12:05:08.694Z,4.88
2023-02-19T12:10:22.055Z,4.95
2023-02-19T12:15:49.681Z,4.90
2023-02-19T12:20:58.043Z,4.95
2023-02-19T12:26:27.792Z,5.13
2023-02-19T12:31:39.423Z,5.63
2023-02-19T12:37:09.153Z,5.22
2023-02-19T12:42:34.899Z,5.13
2023-02-19T12:47:42.640Z,5.38
2023-02-19T12:52:51.584Z,5.05
2023-02-19T12:57:55.686Z,5.30
2023-02-19T13:03:21.309Z,4.95
2023-02-19T13:09:06.031Z,4.70
2023-02-19T13:14:32.877Z,4.28
2023-02-19T13:19:38.842Z,4.15
2023-02-19T13:24:45.078Z,4.15
2023-02-19T13:35:04.957Z,6.00
2023-02-19T13:40:21.143Z,5.13
2023-02-19T13:45:33.355Z,4.90
2023-02-19T13:50:36.434Z,5.85
2023-02-19T13:55:50.077Z,5.60
2023-02-19T14:00:54.094Z,4.97
2023-02-19T14:06:17.123Z,5.53
2023-02-19T14:11:42.227Z,4.93
2023-02-19T14:16:47.655Z,4.75
2023-02-19T14:21:50.196Z,4.80
2023-02-19T14:26:52.689Z,4.55
2023-02-19T14:31:55.706Z,6.30
2023-02-19T14:37:01.397Z,4.72
2023-02-19T14:42:25.414Z,4.30
2023-02-19T14:47:35.467Z,4.65
2023-02-19T14:52:48.285Z,4.63
2023-02-19T14:57:54.361Z,4.95
2023-02-19T15:02:58.967Z,5.35
2023-02-19T15:08:13.673Z,5.45
2023-02-19T15:13:22.152Z,4.13
2023-02-19T15:18:26.543Z,6.05
2023-02-19T15:23:32.046Z,5.88
2023-02-19T15:28:34.888Z,5.30
2023-02-19T15:33:37.437Z,4.78
2023-02-19T15:38:40.232Z,4.63
2023-02-19T15:43:51.854Z,4.68
2023-02-19T15:49:01.089Z,5.07
2023-02-19T15:54:22.820Z,4.22
2023-02-19T15:59:57.870Z,4.88
2023-02-19T16:05:02.536Z,5.00
2023-02-19T16:10:17.192Z,5.20
2023-02-19T16:15:20.961Z,4.97
2023-02-19T16:20:25.278Z,5.22
2023-02-19T16:25:46.512Z,5.65
2023-02-19T16:31:01.603Z,5.28
2023-02-19T16:36:29.186Z,5.75
2023-02-19T16:41:32.021Z,5.88
2023-02-19T16:46:34.885Z,6.10
2023-02-19T16:51:37.712Z,6.47
2023-02-19T16:56:40.442Z,7.07
2023-02-19T17:01:43.334Z,6.72
2023-02-19T17:06:47.811Z,6.13
2023-02-19T17:11:50.477Z,6.57
2023-02-19T17:16:53.825Z,7.03
2023-02-19T17:21:56.409Z,6.88
2023-02-19T17:26:59.798Z,7.25
2023-02-19T17:32:04.813Z,7.85
2023-02-19T17:37:07.482Z,7.18
2023-02-19T17:42:15.107Z,8.40
2023-02-19T17:47:17.663Z,8.23
2023-02-19T17:52:20.062Z,8.60
2023-02-19T17:57:22.604Z,8.55
2023-02-19T18:02:25.143Z,7.18
2023-02-19T18:07:27.741Z,7.50
2023-02-19T18:12:30.351Z,7.63
2023-02-19T18:17:33.837Z,6.85
2023-02-19T18:22:36.557Z,6.50
2023-02-19T18:27:39.984Z,7.45
2023-02-19T18:32:42.941Z,6.80
2023-02-19T18:37:46.060Z,6.95
2023-02-19T18:42:48.735Z,7.07
2023-02-19T18:47:51.386Z,7.72
2023-02-19T18:52:54.154Z,6.60
2023-02-19T18:57:56.628Z,7.40
2023-02-19T19:02:59.852Z,7.30
2023-02-19T19:08:02.629Z,7.00
2023-02-19T19:13:05.823Z,7.35
2023-02-19T19:18:09.343Z,7.15
2023-02-19T19:23:12.534Z,7.20
2023-02-19T19:28:15.157Z,7.45
2023-02-19T19:33:18.292Z,7.30
2023-02-19T19:38:20.804Z,7.38
2023-02-19T19:43:27.550Z,7.55
2023-02-19T19:48:29.884Z,8.25
2023-02-19T19:53:32.537Z,7.72
2023-02-19T19:58:37.019Z,7.45
2023-02-19T20:03:40.318Z,7.10
2023-02-19T20:08:45.577Z,7.68
2023-02-19T20:13:49.347Z,6.90
2023-02-19T20:18:52.449Z,7.80
2023-02-19T20:23:57.275Z,7.53
2023-02-19T20:29:00.449Z,7.47
2023-02-19T20:34:04.010Z,7.57
2023-02-19T20:39:07.139Z,7.53
2023-02-19T20:44:10.118Z,7.18
2023-02-19T20:49:15.181Z,7.88
2023-02-19T20:54:19.018Z,6.82
2023-02-19T20:59:24.273Z,7.95
2023-02-19T21:04:27.734Z,7.13
2023-02-19T21:09:30.799Z,7.80
2023-02-19T21:14:33.456Z,8.00
2023-02-19T21:19:35.956Z,6.93
2023-02-19T21:24:40.893Z,8.20
2023-02-19T21:29:43.824Z,8.13
2023-02-19T21:34:47.530Z,7.85
2023-02-19T21:39:50.654Z,8.57
2023-02-19T21:44:53.348Z,7.50
2023-02-19T21:49:57.292Z,7.93
2023-02-19T21:54:59.771Z,7.70
2023-02-19T22:00:02.680Z,7.45
2023-02-19T22:05:10.661Z,7.47
2023-02-19T22:10:13.830Z,8.18
2023-02-19T22:15:18.749Z,9.23
2023-02-19T22:20:21.902Z,7.70
2023-02-19T22:25:24.891Z,9.23
2023-02-19T22:30:27.969Z,8.60
2023-02-19T22:35:30.540Z,9.18
2023-02-19T22:40:33.622Z,8.75
2023-02-19T22:45:36.170Z,9.82
2023-02-19T22:50:41.120Z,10.27
2023-02-19T22:55:43.541Z,10.23
2023-02-19T23:00:47.458Z,9.75
2023-02-19T23:05:50.744Z,9.68
2023-02-19T23:10:56.384Z,9.45
2023-02-19T23:15:59.692Z,8.90
2023-02-19T23:21:02.371Z,10.10
2023-02-19T23:26:07.074Z,9.60
2023-02-19T23:31:11.345Z,10.98
2023-02-19T23:36:16.141Z,10.27
2023-02-19T23:41:19.837Z,9.88
2023-02-19T23:46:22.775Z,10.60
2023-02-19T23:51:25.532Z,10.48
2023-02-19T23:56:29.870Z,10.05
